sensor_id;sensor_type;location;lat;lon;timestamp;temperature;humidity
45137;DHT22;30894;51.740;19.498;2024-01-10T00:01:26;-13.60;99.90
45137;DHT22;30894;51.740;19.498;2024-01-10T00:03:56;-13.70;99.90
45137;DHT22;30894;51.740;19.498;2024-01-10T00:06:22;-13.60;99.90
45137;DHT22;30894;51.740;19.498;2024-01-10T00:08:49;-13.70;99.90
45137;DHT22;30894;51.740;19.498;2024-01-10T00:11:16;-13.80;99.90
45137;DHT22;30894;51.740;19.498;2024-01-10T00:13:43;-13.80;99.90
45137;DHT22;30894;51.740;19.498;2024-01-10T00:16:12;-13.90;99.90
45137;DHT22;30894;51.740;19.498;2024-01-10T00:18:44;-13.80;99.90
45137;DHT22;30894;51.740;19.498;2024-01-10T00:21:12;-13.80;99.90
45137;DHT22;30894;51.740;19.498;2024-01-10T00:23:38;-13.80;99.90
45137;DHT22;30894;51.740;19.498;2024-01-10T00:26:07;-13.70;99.90
45137;DHT22;30894;51.740;19.498;2024-01-10T00:28:34;-13.70;99.90
45137;DHT22;30894;51.740;19.498;2024-01-10T00:31:05;-13.70;99.90
45137;DHT22;30894;51.740;19.498;2024-01-10T00:33:34;-13.70;99.90
45137;DHT22;30894;51.740;19.498;2024-01-10T00:36:04;-13.70;99.90
45137;DHT22;30894;51.740;19.498;2024-01-10T00:38:30;-13.80;99.90
45137;DHT22;30894;51.740;19.498;2024-01-10T00:40:57;-13.80;99.90
45137;DHT22;30894;51.740;19.498;2024-01-10T00:43:27;-13.90;99.90
45137;DHT22;30894;51.740;19.498;2024-01-10T00:45:53;-14.00;99.90
45137;DHT22;30894;51.740;19.498;2024-01-10T00:48:26;-14.00;99.90
45137;DHT22;30894;51.740;19.498;2024-01-10T00:50:52;-13.90;99.90
45137;DHT22;30894;51.740;19.498;2024-01-10T00:53:19;-13.90;99.90
45137;DHT22;30894;51.740;19.498;2024-01-10T00:55:45;-13.90;99.90
45137;DHT22;30894;51.740;19.498;2024-01-10T00:58:11;-13.80;99.90
45137;DHT22;30894;51.740;19.498;2024-01-10T01:00:38;-13.80;99.90
45137;DHT22;30894;51.740;19.498;2024-01-10T01:03:05;-13.80;99.90
45137;DHT22;30894;51.740;19.498;2024-01-10T01:05:33;-13.90;99.90
45137;DHT22;30894;51.740;19.498;2024-01-10T01:08:02;-13.90;99.90
45137;DHT22;30894;51.740;19.498;2024-01-10T01:10:29;-14.00;99.90
45137;DHT22;30894;51.740;19.498;2024-01-10T01:12:55;-14.00;99.90
45137;DHT22;30894;51.740;19.498;2024-01-10T01:15:25;-14.10;99.90
45137;DHT22;30894;51.740;19.498;2024-01-10T01:17:51;-14.10;99.90
45137;DHT22;30894;51.740;19.498;2024-01-10T01:20:18;-14.10;99.90
45137;DHT22;30894;51.740;19.498;2024-01-10T01:22:47;-14.10;99.90
45137;DHT22;30894;51.740;19.498;2024-01-10T01:25:14;-14.10;99.90
45137;DHT22;30894;51.740;19.498;2024-01-10T01:27:40;-14.00;99.90
45137;DHT22;30894;51.740;19.498;2024-01-10T01:30:07;-14.00;99.90
45137;DHT22;30894;51.740;19.498;2024-01-10T01:32:34;-14.00;99.90
45137;DHT22;30894;51.740;19.498;2024-01-10T01:35:03;-14.10;99.90
45137;DHT22;30894;51.740;19.498;2024-01-10T01:37:29;-14.10;99.90
45137;DHT22;30894;51.740;19.498;2024-01-10T01:39:58;-14.00;99.90
45137;DHT22;30894;51.740;19.498;2024-01-10T01:42:27;-14.00;99.90
45137;DHT22;30894;51.740;19.498;2024-01-10T01:44:57;-14.00;99.90
45137;DHT22;30894;51.740;19.498;2024-01-10T01:47:23;-14.00;99.90
45137;DHT22;30894;51.740;19.498;2024-01-10T01:49:50;-14.00;99.90
45137;DHT22;30894;51.740;19.498;2024-01-10T01:52:19;-14.00;99.90
45137;DHT22;30894;51.740;19.498;2024-01-10T01:54:49;-14.00;99.90
45137;DHT22;30894;51.740;19.498;2024-01-10T01:57:16;-14.10;99.90
45137;DHT22;30894;51.740;19.498;2024-01-10T01:59:42;-14.10;99.90
45137;DHT22;30894;51.740;19.498;2024-01-10T02:02:13;-14.10;99.90
45137;DHT22;30894;51.740;19.498;2024-01-10T02:04:43;-14.00;99.90
45137;DHT22;30894;51.740;19.498;2024-01-10T02:07:11;-13.70;99.90
45137;DHT22;30894;51.740;19.498;2024-01-10T02:09:38;-14.00;99.90
45137;DHT22;30894;51.740;19.498;2024-01-10T02:12:07;-13.90;99.90
45137;DHT22;30894;51.740;19.498;2024-01-10T02:14:34;-13.80;99.90
45137;DHT22;30894;51.740;19.498;2024-01-10T02:17:03;-13.80;99.90
45137;DHT22;30894;51.740;19.498;2024-01-10T02:19:33;-13.90;99.90
45137;DHT22;30894;51.740;19.498;2024-01-10T02:22:00;-13.90;99.90
45137;DHT22;30894;51.740;19.498;2024-01-10T02:24:28;-13.90;99.90
45137;DHT22;30894;51.740;19.498;2024-01-10T02:26:55;-13.90;99.90
45137;DHT22;30894;51.740;19.498;2024-01-10T02:29:22;-14.00;99.90
45137;DHT22;30894;51.740;19.498;2024-01-10T02:31:50;-13.90;99.90
45137;DHT22;30894;51.740;19.498;2024-01-10T02:34:16;-14.00;99.90
45137;DHT22;30894;51.740;19.498;2024-01-10T02:36:43;-13.90;99.90
45137;DHT22;30894;51.740;19.498;2024-01-10T02:39:14;-14.00;99.90
45137;DHT22;30894;51.740;19.498;2024-01-10T02:41:44;-14.00;99.90
45137;DHT22;30894;51.740;19.498;2024-01-10T02:44:10;-14.10;99.90
45137;DHT22;30894;51.740;19.498;2024-01-10T02:46:40;-14.00;99.90
45137;DHT22;30894;51.740;19.498;2024-01-10T02:49:10;-14.00;99.90
45137;DHT22;30894;51.740;19.498;2024-01-10T02:51:38;-13.90;99.90
45137;DHT22;30894;51.740;19.498;2024-01-10T02:54:05;-13.80;99.90
45137;DHT22;30894;51.740;19.498;2024-01-10T02:56:31;-13.80;99.90
45137;DHT22;30894;51.740;19.498;2024-01-10T02:58:58;-13.60;99.90
45137;DHT22;30894;51.740;19.498;2024-01-10T03:01:24;-13.70;99.90
45137;DHT22;30894;51.740;19.498;2024-01-10T03:03:53;-13.60;99.90
45137;DHT22;30894;51.740;19.498;2024-01-10T03:06:22;-13.70;99.90
45137;DHT22;30894;51.740;19.498;2024-01-10T03:08:49;-13.60;99.90
45137;DHT22;30894;51.740;19.498;2024-01-10T03:11:16;-13.70;99.90
45137;DHT22;30894;51.740;19.498;2024-01-10T03:13:44;-13.70;99.90
45137;DHT22;30894;51.740;19.498;2024-01-10T03:16:11;-13.60;99.90
45137;DHT22;30894;51.740;19.498;2024-01-10T03:18:38;-13.60;99.90
45137;DHT22;30894;51.740;19.498;2024-01-10T03:21:10;-13.60;99.90
45137;DHT22;30894;51.740;19.498;2024-01-10T03:23:37;-13.60;99.90
45137;DHT22;30894;51.740;19.498;2024-01-10T03:26:04;-13.50;99.90
45137;DHT22;30894;51.740;19.498;2024-01-10T03:28:34;-13.50;99.90
45137;DHT22;30894;51.740;19.498;2024-01-10T03:31:02;-13.50;99.90
45137;DHT22;30894;51.740;19.498;2024-01-10T03:33:35;-13.40;99.90
45137;DHT22;30894;51.740;19.498;2024-01-10T03:36:11;-13.40;99.90
45137;DHT22;30894;51.740;19.498;2024-01-10T03:38:42;-13.40;99.90
45137;DHT22;30894;51.740;19.498;2024-01-10T03:41:18;-13.40;99.90
45137;DHT22;30894;51.740;19.498;2024-01-10T03:43:46;-13.40;99.90
45137;DHT22;30894;51.740;19.498;2024-01-10T03:46:13;-13.40;99.90
45137;DHT22;30894;51.740;19.498;2024-01-10T03:48:40;-13.40;99.90
45137;DHT22;30894;51.740;19.498;2024-01-10T03:51:14;-13.40;99.90
45137;DHT22;30894;51.740;19.498;2024-01-10T03:53:45;-13.40;99.90
45137;DHT22;30894;51.740;19.498;2024-01-10T03:56:14;-13.10;99.90
45137;DHT22;30894;51.740;19.498;2024-01-10T03:58:41;-13.30;99.90
45137;DHT22;30894;51.740;19.498;2024-01-10T04:01:08;-13.30;99.90
45137;DHT22;30894;51.740;19.498;2024-01-10T04:03:35;-13.20;99.90
45137;DHT22;30894;51.740;19.498;2024-01-10T04:06:02;-13.20;99.90
45137;DHT22;30894;51.740;19.498;2024-01-10T04:08:29;-13.20;99.90
45137;DHT22;30894;51.740;19.498;2024-01-10T04:10:55;-13.20;99.90
45137;DHT22;30894;51.740;19.498;2024-01-10T04:13:24;-13.20;99.90
45137;DHT22;30894;51.740;19.498;2024-01-10T04:15:50;-13.20;99.90
45137;DHT22;30894;51.740;19.498;2024-01-10T04:18:16;-13.20;99.90
45137;DHT22;30894;51.740;19.498;2024-01-10T04:20:42;-13.30;99.90
45137;DHT22;30894;51.740;19.498;2024-01-10T04:23:10;-13.30;99.90
45137;DHT22;30894;51.740;19.498;2024-01-10T04:25:38;-13.40;99.90
45137;DHT22;30894;51.740;19.498;2024-01-10T04:28:05;-13.40;99.90
45137;DHT22;30894;51.740;19.498;2024-01-10T04:30:32;-13.30;99.90
45137;DHT22;30894;51.740;19.498;2024-01-10T04:32:58;-13.40;99.90
45137;DHT22;30894;51.740;19.498;2024-01-10T04:35:25;-13.40;99.90
45137;DHT22;30894;51.740;19.498;2024-01-10T04:37:52;-13.30;99.90
45137;DHT22;30894;51.740;19.498;2024-01-10T04:40:18;-13.30;99.90
45137;DHT22;30894;51.740;19.498;2024-01-10T04:42:45;-13.30;99.90
45137;DHT22;30894;51.740;19.498;2024-01-10T04:45:14;-13.30;99.90
45137;DHT22;30894;51.740;19.498;2024-01-10T04:47:46;-13.30;99.90
45137;DHT22;30894;51.740;19.498;2024-01-10T04:50:13;-13.20;99.90
45137;DHT22;30894;51.740;19.498;2024-01-10T04:52:43;-13.30;99.90
45137;DHT22;30894;51.740;19.498;2024-01-10T04:55:09;-13.30;99.90
45137;DHT22;30894;51.740;19.498;2024-01-10T04:57:40;-13.30;99.90
45137;DHT22;30894;51.740;19.498;2024-01-10T05:00:06;-13.40;99.90
45137;DHT22;30894;51.740;19.498;2024-01-10T05:02:33;-13.50;99.90
45137;DHT22;30894;51.740;19.498;2024-01-10T05:04:59;-13.50;99.90
45137;DHT22;30894;51.740;19.498;2024-01-10T05:07:30;-13.50;99.90
45137;DHT22;30894;51.740;19.498;2024-01-10T05:09:56;-13.60;99.90
45137;DHT22;30894;51.740;19.498;2024-01-10T05:12:23;-13.60;99.90
45137;DHT22;30894;51.740;19.498;2024-01-10T05:14:49;-13.50;99.90
45137;DHT22;30894;51.740;19.498;2024-01-10T05:17:21;-13.40;99.90
45137;DHT22;30894;51.740;19.498;2024-01-10T05:19:47;-13.40;99.90
45137;DHT22;30894;51.740;19.498;2024-01-10T05:22:14;-13.30;99.90
45137;DHT22;30894;51.740;19.498;2024-01-10T05:24:40;-13.30;99.90
45137;DHT22;30894;51.740;19.498;2024-01-10T05:27:13;-13.30;99.90
45137;DHT22;30894;51.740;19.498;2024-01-10T05:29:39;-13.20;99.90
45137;DHT22;30894;51.740;19.498;2024-01-10T05:32:09;-13.20;99.90
45137;DHT22;30894;51.740;19.498;2024-01-10T05:34:36;-13.20;99.90
45137;DHT22;30894;51.740;19.498;2024-01-10T05:37:03;-13.20;99.90
45137;DHT22;30894;51.740;19.498;2024-01-10T05:39:30;-13.20;99.90
45137;DHT22;30894;51.740;19.498;2024-01-10T05:41:59;-13.30;99.90
45137;DHT22;30894;51.740;19.498;2024-01-10T05:44:25;-13.30;99.90
45137;DHT22;30894;51.740;19.498;2024-01-10T05:46:52;-13.40;99.90
45137;DHT22;30894;51.740;19.498;2024-01-10T05:49:23;-13.50;99.90
45137;DHT22;30894;51.740;19.498;2024-01-10T05:51:50;-13.20;99.90
45137;DHT22;30894;51.740;19.498;2024-01-10T05:54:16;-13.60;99.90
45137;DHT22;30894;51.740;19.498;2024-01-10T05:56:45;-13.70;99.90
45137;DHT22;30894;51.740;19.498;2024-01-10T05:59:11;-13.70;99.90
45137;DHT22;30894;51.740;19.498;2024-01-10T06:01:37;-14.00;99.90
45137;DHT22;30894;51.740;19.498;2024-01-10T06:04:04;-13.70;99.90
45137;DHT22;30894;51.740;19.498;2024-01-10T06:06:32;-13.60;99.90
45137;DHT22;30894;51.740;19.498;2024-01-10T06:08:58;-13.50;99.90
45137;DHT22;30894;51.740;19.498;2024-01-10T06:11:29;-13.50;99.90
45137;DHT22;30894;51.740;19.498;2024-01-10T06:13:58;-12.90;99.90
45137;DHT22;30894;51.740;19.498;2024-01-10T06:16:24;-13.40;99.90
45137;DHT22;30894;51.740;19.498;2024-01-10T06:18:51;-13.40;99.90
45137;DHT22;30894;51.740;19.498;2024-01-10T06:21:17;-13.40;99.90
45137;DHT22;30894;51.740;19.498;2024-01-10T06:23:43;-12.90;99.90
45137;DHT22;30894;51.740;19.498;2024-01-10T06:26:10;-13.40;99.90
45137;DHT22;30894;51.740;19.498;2024-01-10T06:28:36;-13.40;99.90
45137;DHT22;30894;51.740;19.498;2024-01-10T06:31:03;-13.40;99.90
45137;DHT22;30894;51.740;19.498;2024-01-10T06:33:29;-13.40;99.90
45137;DHT22;30894;51.740;19.498;2024-01-10T06:35:56;-13.10;99.90
45137;DHT22;30894;51.740;19.498;2024-01-10T06:38:22;-13.40;99.90
45137;DHT22;30894;51.740;19.498;2024-01-10T06:40:49;-13.40;99.90
45137;DHT22;30894;51.740;19.498;2024-01-10T06:43:18;-13.40;99.90
45137;DHT22;30894;51.740;19.498;2024-01-10T06:45:45;-12.50;99.90
45137;DHT22;30894;51.740;19.498;2024-01-10T06:48:12;-13.00;99.90
45137;DHT22;30894;51.740;19.498;2024-01-10T06:50:39;-13.40;99.90
45137;DHT22;30894;51.740;19.498;2024-01-10T06:53:05;-13.40;99.90
45137;DHT22;30894;51.740;19.498;2024-01-10T06:55:34;-13.40;99.90
45137;DHT22;30894;51.740;19.498;2024-01-10T06:58:00;-13.30;99.90
45137;DHT22;30894;51.740;19.498;2024-01-10T07:00:27;-13.40;99.90
45137;DHT22;30894;51.740;19.498;2024-01-10T07:03:01;-13.30;99.90
45137;DHT22;30894;51.740;19.498;2024-01-10T07:05:30;-13.30;99.90
45137;DHT22;30894;51.740;19.498;2024-01-10T07:08:01;-12.80;99.90
45137;DHT22;30894;51.740;19.498;2024-01-10T07:10:31;-13.20;99.90
45137;DHT22;30894;51.740;19.498;2024-01-10T07:12:59;-13.20;99.90
45137;DHT22;30894;51.740;19.498;2024-01-10T07:15:31;-13.10;99.90
45137;DHT22;30894;51.740;19.498;2024-01-10T07:17:57;-13.10;99.90
45137;DHT22;30894;51.740;19.498;2024-01-10T07:20:25;-13.00;99.90
45137;DHT22;30894;51.740;19.498;2024-01-10T07:22:52;-12.90;99.90
45137;DHT22;30894;51.740;19.498;2024-01-10T07:25:19;-12.60;99.90
45137;DHT22;30894;51.740;19.498;2024-01-10T07:27:48;-12.20;99.90
45137;DHT22;30894;51.740;19.498;2024-01-10T07:30:19;-11.80;99.90
45137;DHT22;30894;51.740;19.498;2024-01-10T07:32:46;-11.30;99.90
45137;DHT22;30894;51.740;19.498;2024-01-10T07:35:15;-11.00;99.90
45137;DHT22;30894;51.740;19.498;2024-01-10T07:37:41;-10.60;99.90
45137;DHT22;30894;51.740;19.498;2024-01-10T07:40:15;-10.20;99.90
45137;DHT22;30894;51.740;19.498;2024-01-10T07:42:42;-9.90;99.90
45137;DHT22;30894;51.740;19.498;2024-01-10T07:45:12;-9.60;99.90
45137;DHT22;30894;51.740;19.498;2024-01-10T07:47:39;-9.30;99.90
45137;DHT22;30894;51.740;19.498;2024-01-10T07:50:07;-9.10;99.90
45137;DHT22;30894;51.740;19.498;2024-01-10T07:52:36;-8.80;99.90
45137;DHT22;30894;51.740;19.498;2024-01-10T07:55:04;-8.60;99.90
45137;DHT22;30894;51.740;19.498;2024-01-10T07:57:34;-8.30;99.90
45137;DHT22;30894;51.740;19.498;2024-01-10T08:00:06;-8.10;99.90
45137;DHT22;30894;51.740;19.498;2024-01-10T08:02:49;-7.90;99.90
45137;DHT22;30894;51.740;19.498;2024-01-10T08:05:20;-7.00;99.90
45137;DHT22;30894;51.740;19.498;2024-01-10T08:07:52;-7.50;99.90
45137;DHT22;30894;51.740;19.498;2024-01-10T08:10:19;-7.10;99.90
45137;DHT22;30894;51.740;19.498;2024-01-10T08:12:50;-7.50;99.90
45137;DHT22;30894;51.740;19.498;2024-01-10T08:15:20;-7.00;99.90
45137;DHT22;30894;51.740;19.498;2024-01-10T08:18:00;-6.30;99.90
45137;DHT22;30894;51.740;19.498;2024-01-10T08:20:35;-6.30;99.90
45137;DHT22;30894;51.740;19.498;2024-01-10T08:23:14;-6.40;99.90
45137;DHT22;30894;51.740;19.498;2024-01-10T08:25:49;-6.20;99.90
45137;DHT22;30894;51.740;19.498;2024-01-10T08:28:29;-6.00;99.90
45137;DHT22;30894;51.740;19.498;2024-01-10T08:31:11;-5.60;99.90
45137;DHT22;30894;51.740;19.498;2024-01-10T08:33:43;-5.40;99.90
45137;DHT22;30894;51.740;19.498;2024-01-10T08:36:17;-5.50;99.90
45137;DHT22;30894;51.740;19.498;2024-01-10T08:38:54;-4.30;99.90
45137;DHT22;30894;51.740;19.498;2024-01-10T08:41:32;-4.30;99.90
45137;DHT22;30894;51.740;19.498;2024-01-10T08:44:08;-4.00;99.90
45137;DHT22;30894;51.740;19.498;2024-01-10T08:46:36;-3.20;99.90
45137;DHT22;30894;51.740;19.498;2024-01-10T08:49:09;-2.90;99.90
45137;DHT22;30894;51.740;19.498;2024-01-10T08:51:55;-3.10;99.90
45137;DHT22;30894;51.740;19.498;2024-01-10T08:54:23;-3.20;99.90
45137;DHT22;30894;51.740;19.498;2024-01-10T08:57:02;-2.80;99.90
45137;DHT22;30894;51.740;19.498;2024-01-10T08:59:36;-2.50;99.90
45137;DHT22;30894;51.740;19.498;2024-01-10T09:02:09;-2.10;99.90
45137;DHT22;30894;51.740;19.498;2024-01-10T09:04:54;-1.30;99.90
45137;DHT22;30894;51.740;19.498;2024-01-10T09:07:32;-1.30;99.90
45137;DHT22;30894;51.740;19.498;2024-01-10T09:10:06;-1.30;99.90
45137;DHT22;30894;51.740;19.498;2024-01-10T09:15:41;-1.10;99.90
45137;DHT22;30894;51.740;19.498;2024-01-10T09:18:13;-0.80;99.90
45137;DHT22;30894;51.740;19.498;2024-01-10T09:20:43;-0.60;99.90
45137;DHT22;30894;51.740;19.498;2024-01-10T09:23:32;-0.60;99.90
45137;DHT22;30894;51.740;19.498;2024-01-10T09:25:59;-0.10;99.90
45137;DHT22;30894;51.740;19.498;2024-01-10T09:28:29;-0.10;99.90
45137;DHT22;30894;51.740;19.498;2024-01-10T09:30:57;0.10;99.90
45137;DHT22;30894;51.740;19.498;2024-01-10T09:33:36;0.30;99.90
45137;DHT22;30894;51.740;19.498;2024-01-10T09:36:09;0.60;99.90
45137;DHT22;30894;51.740;19.498;2024-01-10T09:38:38;1.00;99.90
45137;DHT22;30894;51.740;19.498;2024-01-10T09:41:09;1.30;99.90
45137;DHT22;30894;51.740;19.498;2024-01-10T09:43:41;1.50;99.90
45137;DHT22;30894;51.740;19.498;2024-01-10T09:46:10;1.50;99.80
45137;DHT22;30894;51.740;19.498;2024-01-10T09:48:38;1.60;99.60
45137;DHT22;30894;51.740;19.498;2024-01-10T09:51:07;1.70;99.90
45137;DHT22;30894;51.740;19.498;2024-01-10T09:53:43;2.40;99.90
45137;DHT22;30894;51.740;19.498;2024-01-10T09:56:12;2.10;99.90
45137;DHT22;30894;51.740;19.498;2024-01-10T09:58:46;2.30;99.80
45137;DHT22;30894;51.740;19.498;2024-01-10T10:01:17;2.50;99.60
45137;DHT22;30894;51.740;19.498;2024-01-10T10:03:49;2.80;99.60
45137;DHT22;30894;51.740;19.498;2024-01-10T10:06:29;2.90;99.20
45137;DHT22;30894;51.740;19.498;2024-01-10T10:09:10;3.30;99.30
45137;DHT22;30894;51.740;19.498;2024-01-10T10:11:40;3.00;98.70
45137;DHT22;30894;51.740;19.498;2024-01-10T10:14:16;4.10;99.30
45137;DHT22;30894;51.740;19.498;2024-01-10T10:16:48;4.20;99.00
45137;DHT22;30894;51.740;19.498;2024-01-10T10:19:23;4.00;98.60
45137;DHT22;30894;51.740;19.498;2024-01-10T10:22:08;4.00;97.40
45137;DHT22;30894;51.740;19.498;2024-01-10T10:24:40;4.20;98.00
45137;DHT22;30894;51.740;19.498;2024-01-10T10:27:16;4.30;97.30
45137;DHT22;30894;51.740;19.498;2024-01-10T10:29:48;4.40;96.90
45137;DHT22;30894;51.740;19.498;2024-01-10T10:32:19;4.60;97.40
45137;DHT22;30894;51.740;19.498;2024-01-10T10:34:59;5.10;98.10
45137;DHT22;30894;51.740;19.498;2024-01-10T10:37:37;5.50;98.40
45137;DHT22;30894;51.740;19.498;2024-01-10T10:40:10;5.60;97.90
45137;DHT22;30894;51.740;19.498;2024-01-10T10:42:48;6.10;97.60
45137;DHT22;30894;51.740;19.498;2024-01-10T10:45:27;5.80;96.90
45137;DHT22;30894;51.740;19.498;2024-01-10T10:48:00;6.00;97.10
45137;DHT22;30894;51.740;19.498;2024-01-10T10:50:37;6.10;96.80
45137;DHT22;30894;51.740;19.498;2024-01-10T10:53:06;6.40;97.00
45137;DHT22;30894;51.740;19.498;2024-01-10T10:55:43;6.70;96.50
45137;DHT22;30894;51.740;19.498;2024-01-10T10:58:19;6.80;95.50
45137;DHT22;30894;51.740;19.498;2024-01-10T11:00:52;6.80;94.80
45137;DHT22;30894;51.740;19.498;2024-01-10T11:03:24;6.80;95.00
45137;DHT22;30894;51.740;19.498;2024-01-10T11:05:52;6.70;94.50
45137;DHT22;30894;51.740;19.498;2024-01-10T11:08:19;6.40;93.90
45137;DHT22;30894;51.740;19.498;2024-01-10T11:10:49;6.30;94.20
45137;DHT22;30894;51.740;19.498;2024-01-10T11:16:52;6.40;95.00
45137;DHT22;30894;51.740;19.498;2024-01-10T11:25:23;6.30;95.30
45137;DHT22;30894;51.740;19.498;2024-01-10T11:28:06;7.50;95.40
45137;DHT22;30894;51.740;19.498;2024-01-10T11:30:47;6.60;94.60
45137;DHT22;30894;51.740;19.498;2024-01-10T11:33:39;6.50;94.00
45137;DHT22;30894;51.740;19.498;2024-01-10T11:36:11;6.50;94.70
45137;DHT22;30894;51.740;19.498;2024-01-10T11:41:32;6.80;94.70
45137;DHT22;30894;51.740;19.498;2024-01-10T11:46:41;7.80;95.00
45137;DHT22;30894;51.740;19.498;2024-01-10T11:49:19;8.00;94.60
45137;DHT22;30894;51.740;19.498;2024-01-10T11:51:56;8.00;94.30
45137;DHT22;30894;51.740;19.498;2024-01-10T11:54:43;8.20;93.90
45137;DHT22;30894;51.740;19.498;2024-01-10T11:57:25;8.50;93.20
45137;DHT22;30894;51.740;19.498;2024-01-10T11:59:56;8.70;92.90
45137;DHT22;30894;51.740;19.498;2024-01-10T12:02:27;8.70;92.10
45137;DHT22;30894;51.740;19.498;2024-01-10T12:04:57;8.90;92.00
45137;DHT22;30894;51.740;19.498;2024-01-10T12:07:23;8.90;91.80
45137;DHT22;30894;51.740;19.498;2024-01-10T12:09:52;8.90;91.70
45137;DHT22;30894;51.740;19.498;2024-01-10T12:12:21;8.80;91.70
45137;DHT22;30894;51.740;19.498;2024-01-10T12:14:50;8.80;91.70
45137;DHT22;30894;51.740;19.498;2024-01-10T12:17:22;8.50;91.60
45137;DHT22;30894;51.740;19.498;2024-01-10T12:19:54;8.30;91.70
45137;DHT22;30894;51.740;19.498;2024-01-10T12:22:28;7.90;92.10
45137;DHT22;30894;51.740;19.498;2024-01-10T12:25:10;7.50;92.30
45137;DHT22;30894;51.740;19.498;2024-01-10T12:27:45;7.10;92.80
45137;DHT22;30894;51.740;19.498;2024-01-10T12:30:12;7.00;92.70
45137;DHT22;30894;51.740;19.498;2024-01-10T12:32:39;6.70;93.30
45137;DHT22;30894;51.740;19.498;2024-01-10T12:35:09;6.50;93.80
45137;DHT22;30894;51.740;19.498;2024-01-10T12:37:36;6.20;93.90
45137;DHT22;30894;51.740;19.498;2024-01-10T12:40:09;6.10;94.50
45137;DHT22;30894;51.740;19.498;2024-01-10T12:42:38;6.30;94.90
45137;DHT22;30894;51.740;19.498;2024-01-10T12:45:20;6.30;95.20
45137;DHT22;30894;51.740;19.498;2024-01-10T12:47:48;6.10;95.30
45137;DHT22;30894;51.740;19.498;2024-01-10T12:50:15;7.30;95.40
45137;DHT22;30894;51.740;19.498;2024-01-10T12:52:41;6.20;94.70
45137;DHT22;30894;51.740;19.498;2024-01-10T12:55:11;6.00;94.80
45137;DHT22;30894;51.740;19.498;2024-01-10T12:57:38;6.60;95.30
45137;DHT22;30894;51.740;19.498;2024-01-10T13:00:06;5.60;95.40
45137;DHT22;30894;51.740;19.498;2024-01-10T13:02:35;5.60;95.50
45137;DHT22;30894;51.740;19.498;2024-01-10T13:05:07;5.90;95.80
45137;DHT22;30894;51.740;19.498;2024-01-10T13:07:45;5.40;96.10
45137;DHT22;30894;51.740;19.498;2024-01-10T13:10:13;5.40;96.50
45137;DHT22;30894;51.740;19.498;2024-01-10T13:12:52;5.50;96.50
45137;DHT22;30894;51.740;19.498;2024-01-10T13:15:23;6.10;96.80
45137;DHT22;30894;51.740;19.498;2024-01-10T13:17:56;5.80;96.70
45137;DHT22;30894;51.740;19.498;2024-01-10T13:20:27;5.80;96.70
45137;DHT22;30894;51.740;19.498;2024-01-10T13:23:41;5.70;96.90
45137;DHT22;30894;51.740;19.498;2024-01-10T13:26:32;5.30;97.50
45137;DHT22;30894;51.740;19.498;2024-01-10T13:29:05;4.70;98.10
45137;DHT22;30894;51.740;19.498;2024-01-10T13:31:36;4.40;98.20
45137;DHT22;30894;51.740;19.498;2024-01-10T13:34:09;4.30;98.60
45137;DHT22;30894;51.740;19.498;2024-01-10T13:36:44;4.10;98.90
45137;DHT22;30894;51.740;19.498;2024-01-10T13:39:11;3.80;99.20
45137;DHT22;30894;51.740;19.498;2024-01-10T13:41:46;3.80;99.60
45137;DHT22;30894;51.740;19.498;2024-01-10T13:44:44;3.20;99.90
45137;DHT22;30894;51.740;19.498;2024-01-10T13:47:13;3.50;99.90
45137;DHT22;30894;51.740;19.498;2024-01-10T13:49:43;2.80;99.90
45137;DHT22;30894;51.740;19.498;2024-01-10T13:52:15;2.90;99.90
45137;DHT22;30894;51.740;19.498;2024-01-10T13:54:55;2.40;99.90
45137;DHT22;30894;51.740;19.498;2024-01-10T13:57:28;2.40;99.90
45137;DHT22;30894;51.740;19.498;2024-01-10T13:59:55;2.20;99.90
45137;DHT22;30894;51.740;19.498;2024-01-10T14:02:38;2.10;99.90
45137;DHT22;30894;51.740;19.498;2024-01-10T14:05:22;1.90;99.90
45137;DHT22;30894;51.740;19.498;2024-01-10T14:08:04;2.10;99.90
45137;DHT22;30894;51.740;19.498;2024-01-10T14:10:34;1.40;99.90
45137;DHT22;30894;51.740;19.498;2024-01-10T14:13:23;1.50;99.90
45137;DHT22;30894;51.740;19.498;2024-01-10T14:16:06;1.30;99.90
45137;DHT22;30894;51.740;19.498;2024-01-10T14:18:40;1.00;99.90
45137;DHT22;30894;51.740;19.498;2024-01-10T14:21:20;0.50;99.90
45137;DHT22;30894;51.740;19.498;2024-01-10T14:24:07;0.50;99.90
45137;DHT22;30894;51.740;19.498;2024-01-10T14:27:01;0.30;99.90
45137;DHT22;30894;51.740;19.498;2024-01-10T14:30:00;0.00;99.90
45137;DHT22;30894;51.740;19.498;2024-01-10T14:32:54;-0.40;99.90
45137;DHT22;30894;51.740;19.498;2024-01-10T14:35:31;-1.20;99.90
45137;DHT22;30894;51.740;19.498;2024-01-10T14:38:22;-1.10;99.90
45137;DHT22;30894;51.740;19.498;2024-01-10T14:41:18;-1.00;99.90
45137;DHT22;30894;51.740;19.498;2024-01-10T14:43:54;-1.80;99.90
45137;DHT22;30894;51.740;19.498;2024-01-10T14:46:32;-2.10;99.90
45137;DHT22;30894;51.740;19.498;2024-01-10T14:49:26;-2.40;99.90
45137;DHT22;30894;51.740;19.498;2024-01-10T14:51:53;-2.60;99.90
45137;DHT22;30894;51.740;19.498;2024-01-10T14:54:21;-2.80;99.90
45137;DHT22;30894;51.740;19.498;2024-01-10T14:56:59;-3.00;99.90
45137;DHT22;30894;51.740;19.498;2024-01-10T14:59:27;-3.10;99.90
45137;DHT22;30894;51.740;19.498;2024-01-10T15:01:55;-3.50;99.90
45137;DHT22;30894;51.740;19.498;2024-01-10T15:04:26;-3.60;99.90
45137;DHT22;30894;51.740;19.498;2024-01-10T15:06:56;-3.70;99.90
45137;DHT22;30894;51.740;19.498;2024-01-10T15:09:26;-3.90;99.90
45137;DHT22;30894;51.740;19.498;2024-01-10T15:12:00;-4.10;99.90
45137;DHT22;30894;51.740;19.498;2024-01-10T15:14:30;-4.20;99.90
45137;DHT22;30894;51.740;19.498;2024-01-10T15:16:56;-4.50;99.90
45137;DHT22;30894;51.740;19.498;2024-01-10T15:19:38;-4.40;99.90
45137;DHT22;30894;51.740;19.498;2024-01-10T15:22:11;-4.80;99.90
45137;DHT22;30894;51.740;19.498;2024-01-10T15:24:44;-5.00;99.90
45137;DHT22;30894;51.740;19.498;2024-01-10T15:27:15;-5.20;99.90
45137;DHT22;30894;51.740;19.498;2024-01-10T15:29:42;-5.40;99.90
45137;DHT22;30894;51.740;19.498;2024-01-10T15:32:08;-5.70;99.90
45137;DHT22;30894;51.740;19.498;2024-01-10T15:34:36;-5.60;99.90
45137;DHT22;30894;51.740;19.498;2024-01-10T15:37:09;-6.00;99.90
45137;DHT22;30894;51.740;19.498;2024-01-10T15:39:45;-6.10;99.90
45137;DHT22;30894;51.740;19.498;2024-01-10T15:42:15;-6.20;99.90
45137;DHT22;30894;51.740;19.498;2024-01-10T15:44:43;-6.30;99.90
45137;DHT22;30894;51.740;19.498;2024-01-10T15:47:12;-6.50;99.90
45137;DHT22;30894;51.740;19.498;2024-01-10T15:49:46;-6.30;99.90
45137;DHT22;30894;51.740;19.498;2024-01-10T15:52:14;-6.70;99.90
45137;DHT22;30894;51.740;19.498;2024-01-10T15:54:41;-6.80;99.90